Hampton, New Jersey
Current Conditions -  °F | °C
As of 1:53 PM on Friday 21 Nov 2014 (Local Time) from KSMQ Reporting Station
Clear Clear  
Wind Chill: 29°   Ceiling: Unl
Heat Index: 37°   Visibility: 10mi
Dew Point:   Wind: 12mph
Humidity: 29%   Direction: 310°NW
Pressure: 30.32"   Gusts: 23mph
Location:  40.71°N, 74.96°W
Report Text: KSMQ 211853Z AUTO 31010G20KT 10SM CLR 03/M14 A3032 RMK AO2 SLP270 T00281139
Loading
Personal Weather Stations






























Interactive Weather Map New forecast layout! Learn more

10-Day Weather Forecast

Advertisements
Track Severe Weather on mobile